Terminal Aerodrome Forecast
Issued by NWS

Home | Current Version | Previous Version | Text Only | Print | Product List | Glossary On
Versions: 1 2 3 4 5 6 7 8 9 10 11 12 13 14
000
FTUS43 KICT 011134
TAFCNU
TAF
KCNU 011134Z 0112/0212 22011KT P6SM SCT100 BKN200
     FM011600 22016G23KT P6SM SCT100 BKN200
     FM020000 20014G19KT P6SM VCTS SCT080CB BKN150
     FM020900 29011KT P6SM SCT080 BKN150=

USA.gov is the U.S. government's official web portal to all federal, state and local government web resources and services.